createdAt,value
2018-07-10T00:02:47.286Z,69.10
2018-07-10T00:08:02.705Z,69.60
2018-07-10T00:11:03.828Z,69.50
2018-07-10T00:13:46.129Z,69.90
2018-07-10T00:16:27.474Z,69.70
2018-07-10T00:19:08.898Z,69.50
2018-07-10T00:21:50.208Z,69.70
2018-07-10T00:24:31.536Z,69.70
2018-07-10T00:27:13.125Z,69.80
2018-07-10T00:29:54.437Z,69.40
2018-07-10T00:32:35.864Z,69.40
2018-07-10T00:35:18.187Z,69.30
2018-07-10T00:38:17.014Z,69.10
2018-07-10T00:40:58.317Z,68.90
2018-07-10T00:43:39.845Z,68.90
2018-07-10T00:46:22.541Z,69.10
2018-07-10T00:49:04.623Z,68.70
2018-07-10T00:51:45.988Z,68.50
2018-07-10T00:54:27.317Z,68.90
2018-07-10T00:57:08.594Z,68.90
2018-07-10T00:59:49.907Z,69.00
2018-07-10T01:02:45.992Z,68.90
2018-07-10T01:05:27.398Z,68.70
2018-07-10T01:08:08.854Z,69.10
2018-07-10T01:10:59.351Z,69.30
2018-07-10T01:13:41.857Z,69.40
2018-07-10T01:16:34.191Z,69.20
2018-07-10T01:19:18.131Z,69.50
2018-07-10T01:21:59.522Z,70.00
2018-07-10T01:24:40.938Z,70.30
2018-07-10T01:27:22.957Z,70.50
2018-07-10T01:30:04.398Z,70.50
2018-07-10T01:35:27.212Z,71.00
2018-07-10T01:38:08.869Z,71.00
2018-07-10T01:40:51.365Z,71.20
2018-07-10T01:43:33.296Z,71.40
2018-07-10T01:46:16.141Z,71.60
2018-07-10T01:48:58.041Z,71.40
2018-07-10T01:51:39.383Z,71.50
2018-07-10T01:54:20.752Z,71.40
2018-07-10T01:57:02.422Z,71.30
2018-07-10T02:03:06.088Z,70.80
2018-07-10T02:05:47.500Z,70.40
2018-07-10T02:08:29.977Z,70.20
2018-07-10T02:11:11.524Z,69.90
2018-07-10T02:13:54.294Z,70.10
2018-07-10T02:16:35.642Z,70.20
2018-07-10T02:19:17.004Z,70.90
2018-07-10T02:21:58.500Z,71.00
2018-07-10T02:24:39.736Z,70.10
2018-07-10T02:27:21.668Z,70.30
2018-07-10T02:30:03.213Z,70.90
2018-07-10T02:32:45.022Z,71.10
2018-07-10T02:35:26.378Z,71.10
2018-07-10T02:38:08.719Z,71.70
2018-07-10T02:40:51.097Z,71.30
2018-07-10T02:43:32.853Z,71.40
2018-07-10T02:46:14.401Z,71.50
2018-07-10T02:49:27.854Z,71.40
2018-07-10T02:52:10.306Z,71.40
2018-07-10T02:54:52.999Z,71.40
2018-07-10T02:57:36.175Z,71.90
2018-07-10T03:00:17.998Z,72.20
2018-07-10T03:03:00.593Z,72.70
2018-07-10T03:05:42.097Z,73.00
2018-07-10T03:08:24.164Z,73.20
2018-07-10T03:11:05.675Z,72.90
2018-07-10T03:13:47.240Z,73.10
2018-07-10T03:16:29.370Z,73.00
2018-07-10T03:19:12.135Z,72.80
2018-07-10T03:21:54.088Z,72.90
2018-07-10T03:24:36.054Z,72.80
2018-07-10T03:27:17.282Z,72.70
2018-07-10T03:29:59.645Z,72.50
2018-07-10T03:32:41.101Z,72.20
2018-07-10T03:35:23.031Z,72.30
2018-07-10T03:38:05.156Z,72.20
2018-07-10T03:40:46.699Z,72.10
2018-07-10T03:43:28.412Z,72.10
2018-07-10T03:46:09.749Z,72.00
2018-07-10T03:48:51.641Z,71.70
2018-07-10T03:51:33.137Z,71.70
2018-07-10T03:54:14.501Z,72.10
2018-07-10T03:56:56.253Z,71.80
2018-07-10T03:59:45.696Z,71.80
2018-07-10T04:02:26.939Z,71.80
2018-07-10T04:05:08.240Z,71.80
2018-07-10T04:07:53.072Z,71.80
2018-07-10T04:10:36.419Z,71.90
2018-07-10T04:13:21.349Z,72.10
2018-07-10T04:16:03.607Z,72.20
2018-07-10T04:18:45.001Z,72.30
2018-07-10T04:21:29.011Z,72.20
2018-07-10T04:24:17.590Z,71.80
2018-07-10T04:27:12.189Z,71.70
2018-07-10T04:30:05.534Z,72.10
2018-07-10T04:32:46.923Z,72.30
2018-07-10T04:35:29.059Z,72.40
2018-07-10T04:38:11.651Z,72.30
2018-07-10T04:40:53.160Z,72.40
2018-07-10T04:43:34.559Z,72.40
2018-07-10T04:46:15.859Z,72.20
2018-07-10T04:49:29.673Z,72.10
2018-07-10T04:52:24.851Z,72.10
2018-07-10T04:55:10.068Z,72.00
2018-07-10T04:58:03.519Z,72.00
2018-07-10T05:00:48.373Z,72.00
2018-07-10T05:03:32.508Z,72.30
2018-07-10T05:06:15.858Z,72.00
2018-07-10T05:08:57.199Z,72.00
2018-07-10T05:11:43.601Z,71.80
2018-07-10T05:14:26.037Z,71.80
2018-07-10T05:17:07.539Z,71.90
2018-07-10T05:19:50.346Z,72.30
2018-07-10T05:22:31.937Z,72.10
2018-07-10T05:25:13.388Z,71.70
2018-07-10T05:27:55.369Z,72.70
2018-07-10T05:30:37.713Z,71.40
2018-07-10T05:33:23.240Z,71.60
2018-07-10T05:36:05.088Z,71.70
2018-07-10T05:38:47.877Z,71.70
2018-07-10T05:41:30.453Z,71.70
2018-07-10T05:44:16.547Z,72.10
2018-07-10T05:47:02.203Z,72.20
2018-07-10T05:49:43.633Z,72.30
2018-07-10T05:52:26.124Z,72.10
2018-07-10T05:55:07.506Z,72.50
2018-07-10T05:57:48.847Z,71.90
2018-07-10T06:00:31.409Z,71.80
2018-07-10T06:03:12.914Z,71.70
2018-07-10T06:05:55.429Z,72.10
2018-07-10T06:08:37.805Z,71.10
2018-07-10T06:11:20.589Z,70.60
2018-07-10T06:14:02.763Z,70.00
2018-07-10T06:16:44.141Z,69.80
2018-07-10T06:19:25.760Z,70.10
2018-07-10T06:22:07.117Z,70.20
2018-07-10T06:24:48.652Z,69.70
2018-07-10T06:29:56.166Z,69.60
2018-07-10T06:33:51.088Z,69.50
2018-07-10T06:36:40.169Z,68.90
2018-07-10T06:39:23.117Z,68.90
2018-07-10T06:42:11.986Z,68.60
2018-07-10T06:44:54.033Z,68.90
2018-07-10T06:47:44.865Z,68.80
2018-07-10T06:50:26.422Z,67.90
2018-07-10T06:53:07.973Z,67.20
2018-07-10T06:55:56.685Z,66.00
2018-07-10T06:58:38.197Z,65.60
2018-07-10T07:01:20.429Z,65.00
2018-07-10T07:04:07.226Z,65.20
2018-07-10T07:06:48.714Z,64.80
2018-07-10T07:09:30.104Z,64.20
2018-07-10T07:12:11.485Z,63.50
2018-07-10T07:14:53.297Z,64.00
2018-07-10T07:17:35.318Z,63.90
2018-07-10T07:20:16.588Z,63.40
2018-07-10T07:22:58.044Z,64.00
2018-07-10T07:25:39.416Z,63.90
2018-07-10T07:28:21.902Z,64.60
2018-07-10T07:31:03.274Z,63.70
2018-07-10T07:33:44.632Z,62.80
2018-07-10T07:36:25.985Z,62.50
2018-07-10T07:39:08.104Z,61.20
2018-07-10T07:41:51.293Z,59.40
2018-07-10T07:44:32.910Z,59.40
2018-07-10T07:47:14.493Z,59.50
2018-07-10T07:49:58.799Z,59.60
2018-07-10T07:52:53.102Z,59.60
2018-07-10T07:55:34.581Z,59.70
2018-07-10T07:58:16.116Z,59.80
2018-07-10T08:00:57.461Z,59.90
2018-07-10T08:03:38.831Z,59.90
2018-07-10T08:06:21.357Z,60.00
2018-07-10T08:09:04.226Z,60.10
2018-07-10T08:11:47.132Z,60.10
2018-07-10T08:14:28.589Z,60.20
2018-07-10T08:17:10.043Z,59.90
2018-07-10T08:19:53.017Z,57.90
2018-07-10T08:22:34.628Z,59.70
2018-07-10T08:25:20.389Z,58.60
2018-07-10T08:28:02.979Z,60.40
2018-07-10T08:30:44.375Z,60.50
2018-07-10T08:33:25.923Z,60.60
2018-07-10T08:36:08.064Z,58.20
2018-07-10T08:38:50.241Z,58.10
2018-07-10T08:41:43.385Z,58.50
2018-07-10T08:44:26.034Z,56.00
2018-07-10T08:47:09.081Z,55.30
2018-07-10T08:49:53.038Z,55.80
2018-07-10T08:52:35.134Z,54.90
2018-07-10T08:55:17.677Z,54.40
2018-07-10T08:58:00.253Z,54.20
2018-07-10T09:00:42.416Z,54.00
2018-07-10T09:03:24.894Z,53.40
2018-07-10T09:06:07.010Z,54.10
2018-07-10T09:08:48.524Z,53.00
2018-07-10T09:11:29.890Z,52.70
2018-07-10T09:14:11.327Z,51.30
2018-07-10T09:16:53.949Z,51.50
2018-07-10T09:19:39.521Z,51.40
2018-07-10T09:22:21.845Z,50.60
2018-07-10T09:25:06.081Z,51.20
2018-07-10T09:27:47.779Z,51.10
2018-07-10T09:30:29.697Z,51.30
2018-07-10T09:33:11.669Z,52.40
2018-07-10T09:35:53.930Z,51.60
2018-07-10T09:38:36.642Z,52.30
2018-07-10T09:41:18.013Z,52.80
2018-07-10T09:44:01.297Z,51.20
2018-07-10T09:46:42.715Z,52.60
2018-07-10T09:49:25.384Z,52.90
2018-07-10T09:52:06.910Z,52.50
2018-07-10T09:54:48.479Z,51.70
2018-07-10T09:57:30.237Z,51.90
2018-07-10T10:00:11.494Z,53.60
2018-07-10T10:02:53.973Z,53.20
2018-07-10T10:05:40.922Z,50.50
2018-07-10T10:08:24.885Z,50.90
2018-07-10T10:11:09.767Z,50.20
2018-07-10T10:13:53.425Z,49.50
2018-07-10T10:16:34.820Z,49.00
2018-07-10T10:19:16.241Z,50.40
2018-07-10T10:21:57.604Z,50.40
2018-07-10T10:24:39.575Z,51.30
2018-07-10T10:27:24.788Z,51.60
2018-07-10T10:30:06.367Z,51.20
2018-07-10T10:32:47.608Z,51.60
2018-07-10T10:35:30.692Z,52.60
2018-07-10T10:38:12.301Z,52.50
2018-07-10T10:40:54.696Z,51.40
2018-07-10T10:43:36.468Z,51.90
2018-07-10T10:46:22.919Z,51.30
2018-07-10T10:49:04.216Z,51.40
2018-07-10T10:51:45.697Z,51.40
2018-07-10T10:54:27.216Z,51.90
2018-07-10T10:57:08.709Z,50.50
2018-07-10T10:59:53.139Z,50.80
2018-07-10T11:02:34.772Z,52.20
2018-07-10T11:05:16.414Z,52.50
2018-07-10T11:07:59.910Z,50.10
2018-07-10T11:10:42.362Z,48.80
2018-07-10T11:13:25.549Z,48.20
2018-07-10T11:16:06.874Z,47.40
2018-07-10T11:21:01.128Z,47.70
2018-07-10T11:23:53.010Z,47.30
2018-07-10T11:26:42.558Z,48.40
2018-07-10T11:29:25.140Z,47.90
2018-07-10T11:32:06.712Z,47.90
2018-07-10T11:34:50.133Z,47.10
2018-07-10T11:37:31.457Z,47.70
2018-07-10T11:40:14.296Z,48.20
2018-07-10T11:42:55.760Z,48.60
2018-07-10T11:45:37.855Z,48.80
2018-07-10T11:48:21.178Z,48.00
2018-07-10T11:51:02.678Z,47.70
2018-07-10T11:53:44.096Z,48.30
2018-07-10T11:56:26.043Z,48.90
2018-07-10T11:59:08.084Z,49.80
2018-07-10T12:01:50.474Z,51.80
2018-07-10T12:04:41.334Z,53.80
2018-07-10T12:07:24.064Z,54.10
2018-07-10T12:10:23.818Z,54.80
2018-07-10T12:13:05.229Z,55.80
2018-07-10T12:15:46.476Z,57.00
2018-07-10T12:18:27.858Z,56.40
2018-07-10T12:21:13.003Z,55.70
2018-07-10T12:23:55.338Z,55.20
2018-07-10T12:26:37.932Z,55.40
2018-07-10T12:29:20.960Z,56.00
2018-07-10T12:32:02.948Z,56.70
2018-07-10T12:34:44.704Z,56.90
2018-07-10T12:37:26.457Z,57.70
2018-07-10T12:40:07.754Z,57.60
2018-07-10T12:42:51.179Z,58.80
2018-07-10T12:45:32.724Z,58.30
2018-07-10T12:48:14.267Z,58.40
2018-07-10T12:50:55.597Z,57.60
2018-07-10T12:53:38.307Z,57.40
2018-07-10T12:56:21.179Z,56.30
2018-07-10T12:59:03.196Z,56.30
2018-07-10T13:01:45.122Z,58.50
2018-07-10T13:04:29.441Z,56.90
2018-07-10T13:07:10.793Z,59.40
2018-07-10T13:09:52.650Z,59.40
2018-07-10T13:12:34.149Z,57.70
2018-07-10T13:15:15.633Z,59.30
2018-07-10T13:18:05.223Z,60.00
2018-07-10T13:20:57.633Z,61.70
2018-07-10T13:23:41.336Z,63.20
2018-07-10T13:26:23.022Z,62.80
2018-07-10T13:29:04.427Z,61.80
2018-07-10T13:31:46.113Z,62.60
2018-07-10T13:34:27.558Z,63.10
2018-07-10T13:37:09.132Z,63.60
2018-07-10T13:39:51.785Z,64.60
2018-07-10T13:42:58.176Z,63.90
2018-07-10T13:45:39.766Z,63.70
2018-07-10T13:48:22.030Z,63.20
2018-07-10T13:51:03.961Z,63.90
2018-07-10T13:53:45.447Z,63.40
2018-07-10T13:56:28.181Z,63.20
2018-07-10T13:59:09.593Z,62.90
2018-07-10T14:01:52.297Z,62.30
2018-07-10T14:04:33.706Z,62.50
2018-07-10T14:07:15.184Z,61.90
2018-07-10T14:09:56.667Z,61.50
2018-07-10T14:12:38.017Z,60.90
2018-07-10T14:15:19.769Z,61.40
2018-07-10T14:18:06.747Z,61.50
2018-07-10T14:20:59.744Z,62.00
2018-07-10T14:23:43.344Z,62.20
2018-07-10T14:26:25.391Z,62.50
2018-07-10T14:30:01.840Z,62.10
2018-07-10T14:32:47.132Z,62.00
2018-07-10T14:35:28.912Z,62.90
2018-07-10T14:38:27.645Z,61.40
2018-07-10T14:41:09.429Z,61.10
2018-07-10T14:43:52.942Z,62.40
2018-07-10T14:46:37.095Z,61.90
2018-07-10T14:49:18.913Z,62.30
2018-07-10T14:52:00.882Z,62.00
2018-07-10T14:54:42.844Z,61.70
2018-07-10T14:57:24.867Z,61.80
2018-07-10T15:00:06.294Z,62.80
2018-07-10T15:02:47.531Z,62.30
2018-07-10T15:05:29.009Z,63.10
2018-07-10T15:08:10.169Z,63.00
2018-07-10T15:10:51.865Z,62.90
2018-07-10T15:13:51.041Z,62.90
2018-07-10T15:16:37.533Z,63.20
2018-07-10T15:19:18.725Z,63.20
2018-07-10T15:22:00.737Z,62.80
2018-07-10T15:24:42.241Z,63.20
2018-07-10T15:27:23.823Z,63.90
2018-07-10T15:30:05.180Z,64.10
2018-07-10T15:32:46.689Z,64.60
2018-07-10T15:35:28.044Z,64.50
2018-07-10T15:38:09.343Z,64.60
2018-07-10T15:40:51.950Z,64.60
2018-07-10T15:43:33.754Z,64.40
2018-07-10T15:46:15.537Z,64.80
2018-07-10T15:48:57.139Z,65.00
2018-07-10T15:51:38.461Z,65.40
2018-07-10T15:54:19.982Z,65.80
2018-07-10T15:57:01.513Z,66.30
2018-07-10T15:59:43.037Z,66.60
2018-07-10T16:02:25.081Z,66.80
2018-07-10T16:05:07.320Z,66.90
2018-07-10T16:07:48.558Z,67.30
2018-07-10T16:10:30.023Z,67.80
2018-07-10T16:13:11.632Z,67.90
2018-07-10T16:15:57.346Z,68.10
2018-07-10T16:18:39.650Z,68.30
2018-07-10T16:21:21.427Z,68.30
2018-07-10T16:24:03.852Z,68.50
2018-07-10T16:26:45.395Z,68.80
2018-07-10T16:29:26.916Z,69.60
2018-07-10T16:32:08.977Z,69.70
2018-07-10T16:34:51.167Z,70.30
2018-07-10T16:37:32.541Z,70.90
2018-07-10T16:40:15.844Z,71.10
2018-07-10T16:42:57.949Z,71.50
2018-07-10T16:45:40.464Z,71.70
2018-07-10T16:48:29.782Z,71.90
2018-07-10T16:51:31.241Z,72.50
2018-07-10T16:54:12.674Z,72.50
2018-07-10T16:56:55.208Z,72.60
2018-07-10T16:59:36.725Z,72.80
2018-07-10T17:02:18.293Z,73.00
2018-07-10T17:05:00.130Z,73.00
2018-07-10T17:07:41.469Z,73.30
2018-07-10T17:10:24.304Z,73.40
2018-07-10T17:13:05.932Z,73.50
2018-07-10T17:15:47.465Z,73.50
2018-07-10T17:18:28.747Z,73.80
2018-07-10T17:21:10.804Z,73.80
2018-07-10T17:23:53.935Z,73.90
2018-07-10T17:26:35.452Z,74.10
2018-07-10T17:29:16.884Z,74.20
2018-07-10T17:31:58.408Z,74.20
2018-07-10T17:34:39.902Z,74.30
2018-07-10T17:37:22.436Z,74.20
2018-07-10T17:40:05.689Z,74.40
2018-07-10T17:42:49.495Z,74.40
2018-07-10T17:45:31.553Z,74.40
2018-07-10T17:48:13.526Z,74.90
2018-07-10T17:50:55.956Z,75.20
2018-07-10T17:53:37.372Z,75.20
2018-07-10T17:56:18.770Z,75.70
2018-07-10T17:59:03.284Z,75.70
2018-07-10T18:01:44.817Z,76.00
2018-07-10T18:04:27.330Z,76.90
2018-07-10T18:07:08.733Z,77.20
2018-07-10T18:09:50.184Z,77.80
2018-07-10T18:12:31.609Z,78.50
2018-07-10T18:15:13.114Z,79.10
2018-07-10T18:17:55.790Z,79.80
2018-07-10T18:20:37.084Z,80.70
2018-07-10T18:23:18.564Z,81.30
2018-07-10T18:26:00.351Z,82.50
2018-07-10T18:28:41.757Z,83.50
2018-07-10T18:31:24.251Z,82.70
2018-07-10T18:34:05.606Z,83.20
2018-07-10T18:36:47.061Z,83.10
2018-07-10T18:39:28.557Z,84.00
2018-07-10T18:42:10.004Z,85.30
2018-07-10T18:44:52.809Z,85.30
2018-07-10T18:47:34.177Z,85.30
2018-07-10T18:50:15.790Z,85.20
2018-07-10T18:52:57.281Z,85.20
2018-07-10T18:55:38.685Z,85.10
2018-07-10T18:58:28.721Z,85.80
2018-07-10T19:01:25.448Z,86.20
2018-07-10T19:04:06.928Z,86.70
2018-07-10T19:06:49.241Z,87.30
2018-07-10T19:09:37.521Z,87.00
2018-07-10T19:12:19.130Z,87.50
2018-07-10T19:15:01.509Z,86.80
2018-07-10T19:17:42.917Z,86.00
2018-07-10T19:20:25.382Z,86.50
2018-07-10T19:23:34.237Z,86.40
2018-07-10T19:26:16.259Z,86.40
2018-07-10T19:29:09.322Z,87.10
2018-07-10T19:31:59.679Z,87.20
2018-07-10T19:34:47.985Z,87.50
2018-07-10T19:37:32.766Z,88.30
2018-07-10T19:40:14.024Z,88.60
2018-07-10T19:42:56.644Z,88.70
2018-07-10T19:45:38.060Z,88.80
2018-07-10T19:48:20.757Z,89.30
2018-07-10T19:51:02.731Z,89.10
2018-07-10T19:53:47.586Z,89.20
2018-07-10T19:56:29.359Z,89.30
2018-07-10T19:59:13.672Z,89.60
2018-07-10T20:05:05.936Z,90.00
2018-07-10T20:08:05.057Z,90.00
2018-07-10T20:10:56.621Z,89.70
2018-07-10T20:13:45.644Z,89.30
2018-07-10T20:16:39.295Z,89.20
2018-07-10T20:20:27.692Z,89.30
2018-07-10T20:23:18.156Z,89.50
2018-07-10T20:28:29.898Z,89.30
2018-07-10T20:31:35.492Z,89.40
2018-07-10T20:34:32.090Z,90.00
2018-07-10T20:37:23.021Z,89.90
2018-07-10T20:40:04.361Z,90.10
2018-07-10T20:42:45.774Z,90.10
2018-07-10T20:45:28.036Z,90.10
2018-07-10T20:48:20.003Z,90.10
2018-07-10T20:51:06.726Z,90.10
2018-07-10T20:54:08.554Z,90.10
2018-07-10T20:57:05.393Z,90.20
2018-07-10T20:59:48.607Z,90.20
2018-07-10T21:02:53.634Z,90.30
2018-07-10T21:05:41.282Z,90.30
2018-07-10T21:08:45.950Z,90.30
2018-07-10T21:11:38.741Z,90.20
2018-07-10T21:14:32.525Z,90.10
2018-07-10T21:17:18.707Z,90.20
2018-07-10T21:33:30.930Z,90.10
2018-07-10T21:36:29.407Z,90.20
2018-07-10T21:39:21.881Z,90.80
2018-07-10T21:42:25.801Z,90.60
2018-07-10T21:49:27.352Z,90.60
2018-07-10T21:52:09.242Z,90.50
2018-07-10T21:54:51.899Z,90.60
2018-07-10T21:57:38.628Z,90.70
2018-07-10T22:00:27.324Z,90.70
2018-07-10T22:03:08.774Z,90.70
2018-07-10T22:05:50.249Z,90.70
2018-07-10T22:08:31.650Z,90.70
2018-07-10T22:11:13.141Z,90.70
2018-07-10T22:13:54.727Z,90.70
2018-07-10T22:16:37.151Z,90.70
2018-07-10T22:19:25.417Z,90.70
2018-07-10T22:22:06.854Z,90.70
2018-07-10T22:24:49.882Z,90.70
2018-07-10T22:27:31.549Z,90.60
2018-07-10T22:30:21.792Z,90.70
2018-07-10T22:33:03.350Z,90.70
2018-07-10T22:35:45.053Z,90.90
2018-07-10T22:38:26.921Z,90.90
2018-07-10T22:41:08.525Z,90.90
2018-07-10T22:43:50.533Z,90.70
2018-07-10T22:46:33.105Z,90.60
2018-07-10T22:49:15.183Z,90.40
2018-07-10T22:51:59.969Z,90.40
2018-07-10T22:54:41.347Z,90.30
2018-07-10T22:57:24.866Z,90.20
2018-07-10T23:00:06.418Z,90.10
2018-07-10T23:02:47.608Z,90.10
2018-07-10T23:05:29.015Z,90.10
2018-07-10T23:08:10.100Z,90.20
2018-07-10T23:10:51.958Z,90.10
2018-07-10T23:13:36.442Z,90.20
2018-07-10T23:16:17.745Z,90.20
2018-07-10T23:18:58.885Z,90.20
2018-07-10T23:21:41.280Z,90.30
2018-07-10T23:24:23.020Z,90.30
2018-07-10T23:27:04.546Z,90.40
2018-07-10T23:29:45.800Z,90.40
2018-07-10T23:32:27.769Z,90.40
2018-07-10T23:35:08.911Z,90.30
2018-07-10T23:37:57.642Z,90.20
2018-07-10T23:40:42.297Z,90.30
2018-07-10T23:43:25.844Z,90.20
2018-07-10T23:46:12.737Z,90.30
2018-07-10T23:49:00.447Z,90.30
2018-07-10T23:51:59.326Z,90.30
2018-07-10T23:54:40.414Z,90.40
2018-07-10T23:57:21.975Z,90.50
